createdAt,value
2022-09-15T00:00:01.572Z,976.78
2022-09-15T00:01:01.573Z,976.79
2022-09-15T00:02:01.678Z,976.81
2022-09-15T00:03:02.707Z,976.84
2022-09-15T00:04:01.546Z,976.85
2022-09-15T00:05:01.560Z,976.86
2022-09-15T00:06:01.587Z,976.87
2022-09-15T00:07:01.521Z,976.85
2022-09-15T00:08:01.520Z,976.83
2022-09-15T00:09:01.520Z,976.84
2022-09-15T00:10:01.484Z,976.85
2022-09-15T00:11:01.482Z,976.85
2022-09-15T00:12:01.479Z,976.86
2022-09-15T00:13:01.456Z,976.87
2022-09-15T00:14:01.452Z,976.90
2022-09-15T00:15:01.470Z,976.90
2022-09-15T00:16:01.429Z,976.89
2022-09-15T00:17:01.492Z,976.91
2022-09-15T00:18:01.425Z,976.91
2022-09-15T00:19:01.403Z,976.92
2022-09-15T00:20:01.405Z,976.92
2022-09-15T00:21:01.418Z,976.92
2022-09-15T00:22:01.384Z,976.92
2022-09-15T00:23:01.373Z,976.92
2022-09-15T00:24:01.380Z,976.90
2022-09-15T00:25:01.386Z,976.90
2022-09-15T00:26:01.379Z,976.89
2022-09-15T00:27:01.345Z,976.88
2022-09-15T00:28:01.357Z,976.88
2022-09-15T00:29:01.316Z,976.88
2022-09-15T00:30:01.317Z,976.88
2022-09-15T00:31:01.402Z,976.89
2022-09-15T00:32:01.291Z,976.89
2022-09-15T00:33:01.293Z,976.90
2022-09-15T00:34:01.283Z,976.90
2022-09-15T00:35:01.285Z,976.90
2022-09-15T00:36:01.268Z,976.91
2022-09-15T00:37:01.276Z,976.91
2022-09-15T00:38:01.375Z,976.92
2022-09-15T00:39:01.227Z,976.91
2022-09-15T00:40:01.301Z,976.92
2022-09-15T00:41:01.209Z,976.93
2022-09-15T00:42:01.202Z,976.95
2022-09-15T00:43:01.244Z,976.99
2022-09-15T00:44:01.197Z,977.01
2022-09-15T00:45:01.175Z,977.03
2022-09-15T00:46:01.332Z,977.02
2022-09-15T00:47:18.273Z,977.00
2022-09-15T00:48:02.154Z,976.99
2022-09-15T00:49:01.159Z,976.98
2022-09-15T00:50:01.138Z,976.98
2022-09-15T00:51:01.202Z,976.98
2022-09-15T00:52:01.117Z,976.99
2022-09-15T00:53:01.121Z,977.01
2022-09-15T00:54:01.096Z,977.00
2022-09-15T00:55:01.096Z,977.00
2022-09-15T00:56:01.076Z,977.00
2022-09-15T00:57:01.069Z,977.01
2022-09-15T00:58:01.054Z,977.01
2022-09-15T00:59:01.076Z,977.02
2022-09-15T01:00:01.056Z,977.00
2022-09-15T01:01:01.108Z,976.99
2022-09-15T01:02:01.083Z,976.98
2022-09-15T01:03:01.034Z,976.98
2022-09-15T01:04:01.027Z,976.97
2022-09-15T01:05:01.003Z,976.96
2022-09-15T01:06:01.007Z,976.95
2022-09-15T01:07:01.016Z,976.94
2022-09-15T01:08:00.986Z,976.93
2022-09-15T01:09:00.968Z,976.93
2022-09-15T01:10:00.964Z,976.93
2022-09-15T01:11:00.944Z,976.94
2022-09-15T01:12:00.966Z,976.95
2022-09-15T01:13:01.270Z,976.96
2022-09-15T01:14:00.923Z,976.97
2022-09-15T01:15:00.910Z,976.98
2022-09-15T01:16:00.931Z,976.99
2022-09-15T01:17:00.948Z,977.00
2022-09-15T01:18:00.893Z,977.02
2022-09-15T01:19:00.895Z,977.03
2022-09-15T01:20:00.873Z,977.02
2022-09-15T01:21:00.867Z,977.02
2022-09-15T01:22:00.867Z,977.03
2022-09-15T01:23:00.888Z,977.03
2022-09-15T01:24:00.836Z,977.03
2022-09-15T01:25:00.826Z,977.04
2022-09-15T01:26:00.830Z,977.05
2022-09-15T01:27:09.668Z,977.06
2022-09-15T01:28:01.826Z,977.07
2022-09-15T01:29:00.799Z,977.06
2022-09-15T01:30:00.775Z,977.05
2022-09-15T01:31:00.764Z,977.03
2022-09-15T01:32:00.899Z,977.03
2022-09-15T01:33:00.751Z,977.02
2022-09-15T01:34:00.782Z,977.00
2022-09-15T01:35:00.769Z,976.99
2022-09-15T01:36:00.734Z,976.96
2022-09-15T01:37:00.715Z,976.94
2022-09-15T01:38:00.719Z,976.93
2022-09-15T01:39:00.685Z,976.92
2022-09-15T01:40:00.769Z,976.91
2022-09-15T01:41:00.694Z,976.91
2022-09-15T01:42:00.686Z,976.93
2022-09-15T01:43:00.660Z,976.92
2022-09-15T01:44:00.664Z,976.94
2022-09-15T01:45:00.648Z,976.96
2022-09-15T01:46:00.669Z,976.97
2022-09-15T01:47:00.639Z,976.97
2022-09-15T01:48:00.674Z,976.98
2022-09-15T01:49:00.601Z,976.96
2022-09-15T01:50:00.597Z,976.95
2022-09-15T01:51:00.599Z,976.93
2022-09-15T01:52:00.598Z,976.92
2022-09-15T01:53:00.563Z,976.90
2022-09-15T01:54:00.558Z,976.89
2022-09-15T01:55:00.547Z,976.89
2022-09-15T01:56:00.550Z,976.89
2022-09-15T01:57:00.531Z,976.89
2022-09-15T01:58:00.560Z,976.89
2022-09-15T01:59:00.512Z,976.87
2022-09-15T02:00:00.505Z,976.85
2022-09-15T02:01:00.555Z,976.84
2022-09-15T02:02:00.529Z,976.84
2022-09-15T02:03:00.478Z,976.85
2022-09-15T02:04:00.499Z,976.85
2022-09-15T02:05:00.463Z,976.85
2022-09-15T02:06:00.453Z,976.86
2022-09-15T02:07:00.451Z,976.88
2022-09-15T02:08:00.456Z,976.90
2022-09-15T02:09:00.456Z,976.93
2022-09-15T02:10:00.423Z,976.95
2022-09-15T02:11:00.407Z,976.98
2022-09-15T02:12:00.408Z,976.98
2022-09-15T02:13:00.394Z,976.99
2022-09-15T02:14:00.397Z,977.00
2022-09-15T02:15:00.405Z,977.00
2022-09-15T02:16:00.448Z,976.99
2022-09-15T02:17:00.360Z,976.99
2022-09-15T02:18:00.348Z,976.98
2022-09-15T02:19:00.386Z,976.97
2022-09-15T02:20:00.366Z,976.96
2022-09-15T02:21:00.328Z,976.96
2022-09-15T02:22:00.309Z,976.95
2022-09-15T02:23:00.327Z,976.94
2022-09-15T02:24:00.296Z,976.94
2022-09-15T02:25:00.388Z,976.92
2022-09-15T02:26:00.293Z,976.92
2022-09-15T02:27:00.277Z,976.91
2022-09-15T02:28:00.271Z,976.92
2022-09-15T02:29:00.299Z,976.93
2022-09-15T02:30:00.252Z,976.93
2022-09-15T02:31:00.235Z,976.93
2022-09-15T02:32:04.943Z,976.92
2022-09-15T02:33:01.228Z,976.92
2022-09-15T02:34:00.220Z,976.91
2022-09-15T02:35:00.255Z,976.88
2022-09-15T02:36:00.209Z,976.87
2022-09-15T02:37:00.186Z,976.86
2022-09-15T02:38:00.197Z,976.85
2022-09-15T02:39:00.165Z,976.84
2022-09-15T02:40:00.407Z,976.84
2022-09-15T02:41:00.183Z,976.83
2022-09-15T02:42:00.187Z,976.83
2022-09-15T02:43:00.151Z,976.83
2022-09-15T02:44:00.121Z,976.82
2022-09-15T02:45:00.128Z,976.81
2022-09-15T02:46:00.252Z,976.78
2022-09-15T02:47:00.106Z,976.78
2022-09-15T02:48:00.115Z,976.78
2022-09-15T02:49:00.097Z,976.78
2022-09-15T02:50:00.079Z,976.79
2022-09-15T02:51:00.087Z,976.80
2022-09-15T02:52:00.086Z,976.81
2022-09-15T02:53:00.062Z,976.83
2022-09-15T02:54:00.071Z,976.83
2022-09-15T02:55:00.033Z,976.83
2022-09-15T02:56:00.039Z,976.83
2022-09-15T02:57:00.018Z,976.84
2022-09-15T02:58:00.044Z,976.84
2022-09-15T02:58:59.996Z,976.84
2022-09-15T03:00:00.007Z,976.83
2022-09-15T03:01:00.029Z,976.83
2022-09-15T03:02:00.033Z,976.84
2022-09-15T03:03:00.018Z,976.86
2022-09-15T03:03:59.958Z,976.86
2022-09-15T03:04:59.959Z,976.86
2022-09-15T03:05:59.946Z,976.85
2022-09-15T03:06:59.938Z,976.85
2022-09-15T03:07:59.918Z,976.86
2022-09-15T03:08:59.956Z,976.87
2022-09-15T03:09:59.915Z,976.87
2022-09-15T03:10:59.977Z,976.87
2022-09-15T03:11:59.902Z,976.86
2022-09-15T03:12:59.893Z,976.86
2022-09-15T03:13:59.885Z,976.87
2022-09-15T03:14:59.881Z,976.88
2022-09-15T03:15:59.906Z,976.88
2022-09-15T03:16:59.874Z,976.89
2022-09-15T03:18:00.393Z,976.89
2022-09-15T03:18:59.841Z,976.91
2022-09-15T03:19:59.826Z,976.94
2022-09-15T03:20:59.836Z,976.96
2022-09-15T03:21:59.804Z,976.97
2022-09-15T03:22:59.809Z,976.99
2022-09-15T03:23:59.781Z,977.02
2022-09-15T03:24:59.766Z,977.03
2022-09-15T03:25:59.756Z,977.03
2022-09-15T03:26:59.759Z,977.03
2022-09-15T03:27:59.741Z,977.03
2022-09-15T03:28:59.759Z,977.04
2022-09-15T03:29:59.717Z,977.04
2022-09-15T03:30:59.737Z,977.04
2022-09-15T03:31:59.816Z,977.04
2022-09-15T03:32:59.710Z,977.04
2022-09-15T03:33:59.705Z,977.04
2022-09-15T03:34:59.681Z,977.05
2022-09-15T03:35:59.687Z,977.06
2022-09-15T03:36:59.673Z,977.07
2022-09-15T03:37:59.693Z,977.08
2022-09-15T03:38:59.655Z,977.08
2022-09-15T03:39:59.728Z,977.09
2022-09-15T03:40:59.664Z,977.11
2022-09-15T03:41:59.641Z,977.14
2022-09-15T03:42:59.626Z,977.16
2022-09-15T03:43:59.650Z,977.17
2022-09-15T03:44:59.614Z,977.17
2022-09-15T03:45:59.647Z,977.16
2022-09-15T03:46:59.587Z,977.15
2022-09-15T03:47:59.581Z,977.15
2022-09-15T03:48:59.570Z,977.15
2022-09-15T03:49:59.580Z,977.16
2022-09-15T03:50:59.564Z,977.16
2022-09-15T03:51:59.571Z,977.17
2022-09-15T03:52:59.549Z,977.17
2022-09-15T03:53:59.528Z,977.19
2022-09-15T03:54:59.535Z,977.21
2022-09-15T03:55:59.520Z,977.22
2022-09-15T03:56:59.511Z,977.22
2022-09-15T03:57:59.551Z,977.22
2022-09-15T03:58:59.501Z,977.21
2022-09-15T03:59:59.493Z,977.20
2022-09-15T04:00:59.519Z,977.21
2022-09-15T04:01:59.502Z,977.24
2022-09-15T04:02:59.462Z,977.26
2022-09-15T04:03:59.459Z,977.28
2022-09-15T04:04:59.460Z,977.27
2022-09-15T04:05:59.487Z,977.27
2022-09-15T04:06:59.434Z,977.28
2022-09-15T04:07:59.410Z,977.29
2022-09-15T04:08:59.416Z,977.31
2022-09-15T04:09:59.399Z,977.32
2022-09-15T04:10:59.400Z,977.33
2022-09-15T04:11:59.415Z,977.33
2022-09-15T04:12:59.380Z,977.34
2022-09-15T04:14:06.899Z,977.34
2022-09-15T04:14:59.477Z,977.35
2022-09-15T04:15:59.413Z,977.34
2022-09-15T04:16:59.358Z,977.35
2022-09-15T04:17:59.339Z,977.34
2022-09-15T04:18:59.340Z,977.32
2022-09-15T04:19:59.363Z,977.30
2022-09-15T04:20:59.351Z,977.29
2022-09-15T04:21:59.355Z,977.28
2022-09-15T04:22:59.379Z,977.26
2022-09-15T04:23:59.324Z,977.27
2022-09-15T04:24:59.347Z,977.29
2022-09-15T04:26:00.178Z,977.32
2022-09-15T04:26:59.258Z,977.33
2022-09-15T04:27:59.247Z,977.33
2022-09-15T04:29:03.714Z,977.33
2022-09-15T04:30:00.314Z,977.33
2022-09-15T04:30:59.274Z,977.32
2022-09-15T04:31:59.226Z,977.32
2022-09-15T04:32:59.215Z,977.32
2022-09-15T04:33:59.218Z,977.32
2022-09-15T04:34:59.178Z,977.32
2022-09-15T04:35:59.196Z,977.32
2022-09-15T04:36:59.745Z,977.32
2022-09-15T04:37:59.158Z,977.32
2022-09-15T04:38:59.172Z,977.32
2022-09-15T04:39:59.229Z,977.33
2022-09-15T04:40:59.142Z,977.34
2022-09-15T04:41:59.127Z,977.35
2022-09-15T04:42:59.127Z,977.36
2022-09-15T04:43:59.132Z,977.37
2022-09-15T04:44:59.133Z,977.39
2022-09-15T04:45:59.086Z,977.39
2022-09-15T04:46:59.179Z,977.37
2022-09-15T04:47:59.073Z,977.36
2022-09-15T04:48:59.069Z,977.37
2022-09-15T04:49:59.054Z,977.38
2022-09-15T04:50:59.287Z,977.39
2022-09-15T04:51:59.064Z,977.40
2022-09-15T04:52:59.027Z,977.41
2022-09-15T04:53:59.044Z,977.44
2022-09-15T04:54:59.019Z,977.47
2022-09-15T04:55:59.001Z,977.48
2022-09-15T04:56:59.019Z,977.48
2022-09-15T04:57:59.508Z,977.47
2022-09-15T04:59:03.481Z,977.45
2022-09-15T04:59:59.966Z,977.42
2022-09-15T05:00:58.991Z,977.40
2022-09-15T05:01:59.014Z,977.42
2022-09-15T05:02:58.943Z,977.44
2022-09-15T05:03:58.921Z,977.45
2022-09-15T05:04:58.965Z,977.45
2022-09-15T05:05:58.918Z,977.45
2022-09-15T05:06:58.958Z,977.44
2022-09-15T05:07:58.891Z,977.43
2022-09-15T05:08:58.900Z,977.42
2022-09-15T05:09:58.873Z,977.43
2022-09-15T05:10:58.908Z,977.44
2022-09-15T05:11:58.858Z,977.44
2022-09-15T05:12:58.849Z,977.45
2022-09-15T05:13:58.860Z,977.46
2022-09-15T05:14:58.922Z,977.47
2022-09-15T05:15:59.840Z,977.48
2022-09-15T05:16:59.097Z,977.49
2022-09-15T05:17:59.923Z,977.51
2022-09-15T05:18:58.797Z,977.52
2022-09-15T05:19:58.787Z,977.53
2022-09-15T05:20:59.044Z,977.53
2022-09-15T05:21:58.761Z,977.54
2022-09-15T05:22:58.789Z,977.53
2022-09-15T05:23:58.761Z,977.53
2022-09-15T05:24:58.743Z,977.53
2022-09-15T05:25:58.739Z,977.51
2022-09-15T05:26:58.749Z,977.50
2022-09-15T05:27:58.740Z,977.49
2022-09-15T05:28:58.765Z,977.49
2022-09-15T05:30:23.520Z,977.50
2022-09-15T05:30:59.791Z,977.52
2022-09-15T05:31:58.840Z,977.54
2022-09-15T05:32:58.731Z,977.57
2022-09-15T05:33:58.659Z,977.60
2022-09-15T05:34:58.654Z,977.63
2022-09-15T05:35:58.646Z,977.64
2022-09-15T05:36:58.645Z,977.63
2022-09-15T05:37:58.635Z,977.62
2022-09-15T05:38:58.967Z,977.65
2022-09-15T05:39:58.791Z,977.66
2022-09-15T05:40:58.615Z,977.66
2022-09-15T05:41:58.593Z,977.66
2022-09-15T05:42:58.592Z,977.66
2022-09-15T05:43:58.613Z,977.67
2022-09-15T05:44:58.585Z,977.68
2022-09-15T05:45:58.563Z,977.68
2022-09-15T05:46:58.596Z,977.68
2022-09-15T05:47:58.552Z,977.67
2022-09-15T05:48:58.547Z,977.66
2022-09-15T05:49:58.578Z,977.64
2022-09-15T05:50:58.540Z,977.63
2022-09-15T05:51:58.505Z,977.65
2022-09-15T05:52:58.508Z,977.66
2022-09-15T05:53:58.514Z,977.68
2022-09-15T05:54:59.426Z,977.70
2022-09-15T05:55:59.469Z,977.71
2022-09-15T05:56:58.489Z,977.71
2022-09-15T05:57:58.461Z,977.70
2022-09-15T05:58:58.472Z,977.69
2022-09-15T05:59:58.438Z,977.68
2022-09-15T06:00:58.443Z,977.68
2022-09-15T06:01:58.465Z,977.70
2022-09-15T06:02:58.445Z,977.71
2022-09-15T06:03:58.415Z,977.71
2022-09-15T06:04:58.419Z,977.72
2022-09-15T06:05:58.395Z,977.73
2022-09-15T06:06:58.377Z,977.75
2022-09-15T06:07:58.376Z,977.75
2022-09-15T06:08:59.461Z,977.77
2022-09-15T06:09:58.389Z,977.79
2022-09-15T06:10:58.347Z,977.80
2022-09-15T06:11:58.330Z,977.80
2022-09-15T06:12:58.329Z,977.82
2022-09-15T06:13:58.317Z,977.83
2022-09-15T06:14:59.299Z,977.82
2022-09-15T06:15:58.384Z,977.83
2022-09-15T06:16:58.607Z,977.87
2022-09-15T06:17:58.287Z,977.88
2022-09-15T06:18:58.337Z,977.88
2022-09-15T06:19:58.291Z,977.89
2022-09-15T06:20:58.409Z,977.90
2022-09-15T06:21:58.250Z,977.89
2022-09-15T06:22:58.247Z,977.91
2022-09-15T06:23:58.224Z,977.91
2022-09-15T06:24:58.242Z,977.89
2022-09-15T06:25:58.226Z,977.91
2022-09-15T06:26:58.232Z,977.93
2022-09-15T06:27:58.193Z,977.94
2022-09-15T06:28:58.181Z,977.92
2022-09-15T06:29:58.220Z,977.94
2022-09-15T06:30:58.428Z,977.95
2022-09-15T06:31:58.290Z,977.94
2022-09-15T06:32:58.209Z,977.97
2022-09-15T06:33:58.144Z,977.97
2022-09-15T06:34:58.141Z,977.96
2022-09-15T06:35:58.212Z,977.97
2022-09-15T06:36:58.129Z,977.97
2022-09-15T06:37:58.169Z,977.98
2022-09-15T06:38:58.108Z,977.98
2022-09-15T06:39:58.189Z,977.99
2022-09-15T06:40:58.179Z,977.99
2022-09-15T06:42:02.756Z,978.01
2022-09-15T06:42:59.117Z,978.02
2022-09-15T06:43:58.080Z,978.04
2022-09-15T06:44:58.057Z,978.04
2022-09-15T06:45:58.234Z,978.02
2022-09-15T06:46:58.026Z,978.06
2022-09-15T06:48:20.166Z,978.06
2022-09-15T06:48:59.037Z,978.09
2022-09-15T06:49:58.010Z,978.07
2022-09-15T06:50:58.006Z,978.09
2022-09-15T06:51:57.989Z,978.10
2022-09-15T06:52:57.993Z,978.11
2022-09-15T06:53:57.978Z,978.12
2022-09-15T06:54:57.992Z,978.13
2022-09-15T06:55:57.970Z,978.14
2022-09-15T06:56:57.940Z,978.10
2022-09-15T06:57:57.960Z,978.12
2022-09-15T06:58:57.921Z,978.12
2022-09-15T06:59:57.955Z,978.12
2022-09-15T07:00:57.916Z,978.12
2022-09-15T07:02:00.329Z,978.11
2022-09-15T07:02:59.040Z,978.12
2022-09-15T07:03:57.914Z,978.13
2022-09-15T07:04:57.885Z,978.14
2022-09-15T07:05:57.880Z,978.15
2022-09-15T07:06:57.865Z,978.15
2022-09-15T07:07:57.868Z,978.16
2022-09-15T07:08:57.896Z,978.15
2022-09-15T07:09:57.882Z,978.14
2022-09-15T07:10:57.836Z,978.15
2022-09-15T07:11:57.910Z,978.14
2022-09-15T07:12:57.801Z,978.13
2022-09-15T07:13:57.885Z,978.12
2022-09-15T07:14:57.822Z,978.11
2022-09-15T07:15:57.825Z,978.12
2022-09-15T07:16:57.789Z,978.12
2022-09-15T07:17:57.773Z,978.12
2022-09-15T07:18:57.759Z,978.14
2022-09-15T07:19:57.781Z,978.14
2022-09-15T07:20:57.738Z,978.16
2022-09-15T07:21:57.744Z,978.17
2022-09-15T07:22:57.780Z,978.19
2022-09-15T07:23:57.772Z,978.19
2022-09-15T07:24:57.876Z,978.20
2022-09-15T07:25:57.740Z,978.23
2022-09-15T07:26:57.694Z,978.23
2022-09-15T07:27:57.706Z,978.25
2022-09-15T07:28:57.665Z,978.26
2022-09-15T07:29:57.671Z,978.27
2022-09-15T07:30:57.649Z,978.28
2022-09-15T07:31:57.757Z,978.29
2022-09-15T07:32:57.630Z,978.30
2022-09-15T07:33:57.631Z,978.30
2022-09-15T07:34:58.514Z,978.32
2022-09-15T07:35:57.614Z,978.33
2022-09-15T07:36:57.645Z,978.34
2022-09-15T07:37:57.652Z,978.34
2022-09-15T07:38:57.589Z,978.34
2022-09-15T07:39:57.637Z,978.35
2022-09-15T07:40:57.612Z,978.37
2022-09-15T07:41:57.569Z,978.39
2022-09-15T07:42:57.575Z,978.39
2022-09-15T07:43:57.565Z,978.38
2022-09-15T07:44:57.700Z,978.38
2022-09-15T07:45:57.637Z,978.40
2022-09-15T07:46:57.603Z,978.41
2022-09-15T07:47:57.553Z,978.42
2022-09-15T07:48:57.670Z,978.43
2022-09-15T07:49:57.542Z,978.45
2022-09-15T07:50:57.521Z,978.45
2022-09-15T07:51:57.517Z,978.44
2022-09-15T07:52:57.491Z,978.42
2022-09-15T07:53:57.526Z,978.43
2022-09-15T07:54:57.451Z,978.43
2022-09-15T07:55:57.468Z,978.44
2022-09-15T07:56:57.499Z,978.44
2022-09-15T07:57:57.446Z,978.44
2022-09-15T07:58:57.456Z,978.46
2022-09-15T07:59:57.426Z,978.45
2022-09-15T08:00:57.477Z,978.46
2022-09-15T08:01:57.492Z,978.48
2022-09-15T08:02:57.403Z,978.48
2022-09-15T08:03:57.440Z,978.48
2022-09-15T08:04:57.382Z,978.49
2022-09-15T08:05:57.375Z,978.48
2022-09-15T08:06:57.361Z,978.49
2022-09-15T08:07:57.362Z,978.49
2022-09-15T08:09:00.790Z,978.48
2022-09-15T08:09:57.339Z,978.50
2022-09-15T08:10:57.341Z,978.52
2022-09-15T08:11:57.323Z,978.53
2022-09-15T08:12:57.317Z,978.53
2022-09-15T08:13:57.323Z,978.53
2022-09-15T08:14:57.348Z,978.52
2022-09-15T08:15:57.372Z,978.52
2022-09-15T08:16:57.292Z,978.53
2022-09-15T08:17:57.292Z,978.53
2022-09-15T08:18:57.263Z,978.56
2022-09-15T08:19:57.297Z,978.56
2022-09-15T08:20:57.257Z,978.53
2022-09-15T08:21:57.243Z,978.55
2022-09-15T08:22:57.227Z,978.54
2022-09-15T08:23:57.227Z,978.57
2022-09-15T08:24:57.212Z,978.59
2022-09-15T08:25:57.227Z,978.59
2022-09-15T08:26:57.222Z,978.61
2022-09-15T08:27:57.190Z,978.61
2022-09-15T08:28:57.215Z,978.62
2022-09-15T08:29:57.180Z,978.64
2022-09-15T08:30:57.256Z,978.65
2022-09-15T08:31:57.169Z,978.67
2022-09-15T08:32:57.144Z,978.69
2022-09-15T08:33:57.207Z,978.70
2022-09-15T08:34:57.168Z,978.72
2022-09-15T08:35:57.524Z,978.76
2022-09-15T08:36:57.146Z,978.77
2022-09-15T08:37:57.268Z,978.74
2022-09-15T08:38:57.170Z,978.76
2022-09-15T08:39:57.198Z,978.79
2022-09-15T08:40:57.098Z,978.76
2022-09-15T08:41:57.099Z,978.76
2022-09-15T08:42:57.071Z,978.76
2022-09-15T08:43:57.085Z,978.77
2022-09-15T08:44:57.068Z,978.79
2022-09-15T08:45:57.043Z,978.77
2022-09-15T08:46:57.124Z,978.78
2022-09-15T08:47:57.031Z,978.74
2022-09-15T08:49:02.078Z,978.75
2022-09-15T08:49:58.260Z,978.72
2022-09-15T08:50:57.006Z,978.74
2022-09-15T08:51:57.022Z,978.70
2022-09-15T08:52:56.993Z,978.67
2022-09-15T08:53:56.989Z,978.65
2022-09-15T08:54:56.999Z,978.70
2022-09-15T08:55:57.335Z,978.69
2022-09-15T08:56:56.946Z,978.70
2022-09-15T08:57:56.959Z,978.70
2022-09-15T08:58:56.933Z,978.72
2022-09-15T08:59:57.032Z,978.75
2022-09-15T09:00:56.982Z,978.78
2022-09-15T09:01:57.036Z,978.79
2022-09-15T09:02:56.973Z,978.79
2022-09-15T09:03:56.898Z,978.81
2022-09-15T09:04:56.892Z,978.85
2022-09-15T09:05:56.922Z,978.85
2022-09-15T09:06:56.985Z,978.86
2022-09-15T09:07:57.864Z,978.88
2022-09-15T09:08:56.856Z,978.89
2022-09-15T09:09:56.848Z,978.91
2022-09-15T09:10:56.844Z,978.91
2022-09-15T09:11:56.843Z,978.90
2022-09-15T09:12:56.853Z,978.89
2022-09-15T09:13:56.830Z,978.88
2022-09-15T09:14:56.817Z,978.88
2022-09-15T09:15:56.861Z,978.88
2022-09-15T09:16:56.822Z,978.91
2022-09-15T09:17:56.874Z,978.92
2022-09-15T09:18:56.776Z,978.92
2022-09-15T09:19:56.785Z,978.91
2022-09-15T09:20:56.929Z,978.88
2022-09-15T09:21:56.758Z,978.90
2022-09-15T09:22:56.766Z,978.88
2022-09-15T09:23:56.738Z,978.87
2022-09-15T09:24:56.749Z,978.82
2022-09-15T09:25:56.715Z,978.80
2022-09-15T09:26:56.742Z,978.83
2022-09-15T09:27:56.711Z,978.81
2022-09-15T09:28:56.720Z,978.80
2022-09-15T09:29:56.686Z,978.74
2022-09-15T09:30:56.736Z,978.79
2022-09-15T09:31:56.689Z,978.78
2022-09-15T09:32:56.700Z,978.81
2022-09-15T09:33:56.879Z,978.83
2022-09-15T09:34:56.634Z,978.80
2022-09-15T09:35:56.636Z,978.75
2022-09-15T09:36:56.681Z,978.72
2022-09-15T09:37:56.636Z,978.70
2022-09-15T09:38:56.690Z,978.69
2022-09-15T09:39:56.662Z,978.70
2022-09-15T09:41:01.298Z,978.69
2022-09-15T09:41:57.587Z,978.66
2022-09-15T09:42:56.574Z,978.65
2022-09-15T09:43:56.574Z,978.66
2022-09-15T09:44:56.627Z,978.63
2022-09-15T09:45:56.641Z,978.64
2022-09-15T09:46:56.547Z,978.61
2022-09-15T09:48:01.350Z,978.64
2022-09-15T09:48:57.527Z,978.63
2022-09-15T09:49:56.528Z,978.64
2022-09-15T09:50:56.588Z,978.62
2022-09-15T09:51:56.516Z,978.66
2022-09-15T09:52:56.489Z,978.70
2022-09-15T09:53:56.486Z,978.68
2022-09-15T09:54:56.492Z,978.64
2022-09-15T09:55:56.582Z,978.62
2022-09-15T09:56:56.496Z,978.63
2022-09-15T09:57:56.456Z,978.63
2022-09-15T09:58:56.467Z,978.61
2022-09-15T09:59:56.446Z,978.55
2022-09-15T10:00:56.518Z,978.60
2022-09-15T10:01:56.473Z,978.53
2022-09-15T10:02:56.429Z,978.58
2022-09-15T10:03:56.407Z,978.53
2022-09-15T10:04:56.433Z,978.53
2022-09-15T10:05:56.376Z,978.51
2022-09-15T10:06:56.394Z,978.52
2022-09-15T10:07:56.440Z,978.58
2022-09-15T10:08:56.369Z,978.57
2022-09-15T10:09:56.350Z,978.52
2022-09-15T10:10:56.388Z,978.52
2022-09-15T10:11:56.350Z,978.52
2022-09-15T10:12:56.357Z,978.60
2022-09-15T10:13:56.347Z,978.62
2022-09-15T10:14:56.864Z,978.63
2022-09-15T10:15:56.328Z,978.64
2022-09-15T10:16:56.345Z,978.68
2022-09-15T10:17:56.340Z,978.65
2022-09-15T10:18:56.273Z,978.69
2022-09-15T10:19:56.298Z,978.71
2022-09-15T10:20:56.295Z,978.72
2022-09-15T10:21:56.271Z,978.76
2022-09-15T10:22:56.279Z,978.73
2022-09-15T10:23:56.252Z,978.73
2022-09-15T10:24:56.301Z,978.76
2022-09-15T10:25:59.700Z,978.77
2022-09-15T10:26:56.220Z,978.78
2022-09-15T10:27:56.201Z,978.79
2022-09-15T10:28:56.196Z,978.73
2022-09-15T10:29:56.183Z,978.75
2022-09-15T10:30:56.202Z,978.78
2022-09-15T10:31:56.295Z,978.80
2022-09-15T10:32:56.152Z,978.77
2022-09-15T10:33:56.146Z,978.81
2022-09-15T10:34:56.229Z,978.80
2022-09-15T10:35:56.229Z,978.80
2022-09-15T10:36:56.168Z,978.79
2022-09-15T10:37:56.347Z,978.79
2022-09-15T10:38:56.138Z,978.81
2022-09-15T10:39:56.146Z,978.84
2022-09-15T10:40:56.099Z,978.85
2022-09-15T10:41:56.089Z,978.85
2022-09-15T10:42:56.141Z,978.85
2022-09-15T10:43:56.075Z,978.87
2022-09-15T10:44:56.122Z,978.88
2022-09-15T10:45:56.124Z,978.89
2022-09-15T10:46:56.068Z,978.86
2022-09-15T10:47:56.025Z,978.85
2022-09-15T10:48:56.008Z,978.87
2022-09-15T10:49:56.133Z,978.87
2022-09-15T10:50:56.056Z,978.89
2022-09-15T10:51:55.998Z,978.89
2022-09-15T10:52:56.009Z,978.89
2022-09-15T10:53:57.588Z,978.89
2022-09-15T10:54:55.976Z,978.92
2022-09-15T10:55:56.025Z,978.94
2022-09-15T10:56:55.956Z,978.93
2022-09-15T10:57:55.974Z,978.96
2022-09-15T10:58:56.047Z,978.97
2022-09-15T11:00:03.459Z,978.97
2022-09-15T11:00:55.971Z,978.99
2022-09-15T11:01:56.174Z,979.00
2022-09-15T11:02:55.905Z,979.00
2022-09-15T11:03:55.888Z,978.98
2022-09-15T11:04:55.894Z,978.99
2022-09-15T11:05:55.873Z,978.98
2022-09-15T11:06:55.962Z,978.96
2022-09-15T11:07:55.867Z,978.98
2022-09-15T11:08:55.855Z,979.01
2022-09-15T11:09:55.839Z,979.01
2022-09-15T11:10:55.848Z,979.04
2022-09-15T11:11:55.839Z,979.05
2022-09-15T11:12:55.849Z,979.05
2022-09-15T11:13:55.810Z,979.02
2022-09-15T11:14:55.811Z,979.03
2022-09-15T11:15:55.813Z,979.04
2022-09-15T11:16:55.800Z,979.03
2022-09-15T11:17:55.828Z,979.06
2022-09-15T11:18:55.835Z,979.05
2022-09-15T11:19:55.756Z,979.07
2022-09-15T11:20:55.775Z,979.01
2022-09-15T11:21:55.743Z,979.02
2022-09-15T11:22:55.740Z,979.03
2022-09-15T11:23:55.732Z,979.04
2022-09-15T11:24:55.740Z,979.05
2022-09-15T11:25:55.739Z,979.08
2022-09-15T11:26:55.696Z,979.09
2022-09-15T11:27:55.699Z,979.10
2022-09-15T11:28:55.697Z,979.11
2022-09-15T11:29:59.517Z,979.16
2022-09-15T11:30:57.099Z,979.17
2022-09-15T11:31:55.784Z,979.20
2022-09-15T11:32:57.931Z,979.23
2022-09-15T11:33:58.044Z,979.22
2022-09-15T11:34:55.650Z,979.23
2022-09-15T11:35:55.622Z,979.23
2022-09-15T11:36:55.618Z,979.25
2022-09-15T11:37:55.604Z,979.27
2022-09-15T11:38:55.623Z,979.28
2022-09-15T11:39:55.678Z,979.28
2022-09-15T11:40:55.580Z,979.24
2022-09-15T11:41:55.575Z,979.27
2022-09-15T11:42:55.579Z,979.28
2022-09-15T11:43:55.555Z,979.26
2022-09-15T11:44:55.573Z,979.26
2022-09-15T11:45:55.948Z,979.24
2022-09-15T11:46:55.793Z,979.23
2022-09-15T11:47:55.676Z,979.22
2022-09-15T11:48:55.518Z,979.22
2022-09-15T11:49:55.505Z,979.23
2022-09-15T11:50:55.563Z,979.24
2022-09-15T11:51:55.487Z,979.24
2022-09-15T11:52:55.480Z,979.25
2022-09-15T11:53:55.473Z,979.26
2022-09-15T11:54:55.473Z,979.26
2022-09-15T11:55:55.490Z,979.25
2022-09-15T11:56:55.453Z,979.28
2022-09-15T11:57:55.447Z,979.27
2022-09-15T11:58:55.450Z,979.25
2022-09-15T11:59:55.443Z,979.23
2022-09-15T12:00:55.532Z,979.23
2022-09-15T12:01:55.536Z,979.24
2022-09-15T12:02:55.449Z,979.25
2022-09-15T12:03:55.427Z,979.27
2022-09-15T12:04:55.511Z,979.24
2022-09-15T12:05:55.383Z,979.23
2022-09-15T12:06:55.500Z,979.25
2022-09-15T12:07:55.446Z,979.28
2022-09-15T12:08:55.408Z,979.19
2022-09-15T12:09:55.540Z,979.20
2022-09-15T12:10:55.341Z,979.27
2022-09-15T12:11:55.336Z,979.22
2022-09-15T12:12:55.335Z,979.24
2022-09-15T12:13:55.397Z,979.23
2022-09-15T12:14:55.341Z,979.25
2022-09-15T12:15:55.357Z,979.25
2022-09-15T12:16:55.303Z,979.27
2022-09-15T12:17:55.285Z,979.27
2022-09-15T12:18:55.291Z,979.28
2022-09-15T12:19:55.292Z,979.30
2022-09-15T12:20:55.297Z,979.29
2022-09-15T12:21:55.269Z,979.29
2022-09-15T12:22:55.252Z,979.30
2022-09-15T12:23:55.247Z,979.33
2022-09-15T12:24:58.867Z,979.35
2022-09-15T12:25:56.222Z,979.34
2022-09-15T12:26:55.224Z,979.32
2022-09-15T12:27:55.196Z,979.27